sensor_id;sensor_type;location;lat;lon;timestamp;pressure;altitude;pressure_sealevel;temperature;humidity
9746;BME280;4912;50.836;12.958;2023-04-08T00:01:19;98042.16;;;8.05;77.42
9746;BME280;4912;50.836;12.958;2023-04-08T00:03:52;98046.91;;;8.05;78.16
9746;BME280;4912;50.836;12.958;2023-04-08T00:06:23;98043.25;;;8.08;79.08
9746;BME280;4912;50.836;12.958;2023-04-08T00:08:53;98047.09;;;8.10;79.21
9746;BME280;4912;50.836;12.958;2023-04-08T00:11:23;98040.81;;;8.10;79.47
9746;BME280;4912;50.836;12.958;2023-04-08T00:13:53;98041.47;;;8.14;79.29
9746;BME280;4912;50.836;12.958;2023-04-08T00:16:24;98041.47;;;8.14;79.59
9746;BME280;4912;50.836;12.958;2023-04-08T00:18:57;98045.00;;;8.14;79.62
9746;BME280;4912;50.836;12.958;2023-04-08T00:21:27;98043.78;;;8.15;79.40
9746;BME280;4912;50.836;12.958;2023-04-08T00:23:57;98048.53;;;8.15;79.12
9746;BME280;4912;50.836;12.958;2023-04-08T00:26:27;98050.19;;;8.12;79.33
9746;BME280;4912;50.836;12.958;2023-04-08T00:28:58;98041.03;;;8.15;79.49
9746;BME280;4912;50.836;12.958;2023-04-08T00:31:28;98041.59;;;8.10;79.80
9746;BME280;4912;50.836;12.958;2023-04-08T00:34:00;98042.38;;;8.11;79.88
9746;BME280;4912;50.836;12.958;2023-04-08T00:36:31;98039.63;;;8.11;79.62
9746;BME280;4912;50.836;12.958;2023-04-08T00:39:02;98040.69;;;8.13;79.48
9746;BME280;4912;50.836;12.958;2023-04-08T00:41:33;98039.28;;;8.09;78.90
9746;BME280;4912;50.836;12.958;2023-04-08T00:44:03;98038.63;;;8.05;79.46
9746;BME280;4912;50.836;12.958;2023-04-08T00:46:34;98039.50;;;8.02;80.22
9746;BME280;4912;50.836;12.958;2023-04-08T00:49:10;98042.59;;;8.04;80.43
9746;BME280;4912;50.836;12.958;2023-04-08T00:51:40;98043.50;;;8.01;80.28
9746;BME280;4912;50.836;12.958;2023-04-08T00:54:10;98035.25;;;8.01;80.73
9746;BME280;4912;50.836;12.958;2023-04-08T00:56:40;98042.59;;;8.04;80.87
9746;BME280;4912;50.836;12.958;2023-04-08T00:59:12;98045.03;;;8.02;80.13
9746;BME280;4912;50.836;12.958;2023-04-08T01:01:45;98045.03;;;8.02;80.35
9746;BME280;4912;50.836;12.958;2023-04-08T01:04:24;98046.56;;;8.03;79.99
9746;BME280;4912;50.836;12.958;2023-04-08T01:06:59;98052.41;;;8.05;80.09
9746;BME280;4912;50.836;12.958;2023-04-08T01:09:32;98048.25;;;8.00;80.58
9746;BME280;4912;50.836;12.958;2023-04-08T01:12:05;98052.22;;;7.99;80.92
9746;BME280;4912;50.836;12.958;2023-04-08T01:14:38;98055.06;;;7.96;80.89
9746;BME280;4912;50.836;12.958;2023-04-08T01:17:11;98051.09;;;7.97;82.04
9746;BME280;4912;50.836;12.958;2023-04-08T01:19:44;98045.50;;;8.00;81.88
9746;BME280;4912;50.836;12.958;2023-04-08T01:22:18;98048.13;;;8.04;81.18
9746;BME280;4912;50.836;12.958;2023-04-08T01:24:52;98045.38;;;8.04;80.80
9746;BME280;4912;50.836;12.958;2023-04-08T01:27:34;98049.66;;;8.05;81.47
9746;BME280;4912;50.836;12.958;2023-04-08T01:30:07;98052.41;;;8.05;82.02
9746;BME280;4912;50.836;12.958;2023-04-08T01:32:38;98043.72;;;8.06;82.04
9746;BME280;4912;50.836;12.958;2023-04-08T01:35:10;98046.91;;;8.05;82.24
9746;BME280;4912;50.836;12.958;2023-04-08T01:37:40;98053.06;;;8.09;82.04
9746;BME280;4912;50.836;12.958;2023-04-08T01:40:11;98051.97;;;8.06;81.49
9746;BME280;4912;50.836;12.958;2023-04-08T01:42:44;98038.00;;;8.01;80.61
9746;BME280;4912;50.836;12.958;2023-04-08T01:45:16;98047.56;;;7.96;81.50
9746;BME280;4912;50.836;12.958;2023-04-08T01:47:47;98045.59;;;7.97;82.56
9746;BME280;4912;50.836;12.958;2023-04-08T01:50:18;98037.56;;;7.90;82.19
9746;BME280;4912;50.836;12.958;2023-04-08T01:52:49;98027.56;;;7.83;81.96
9746;BME280;4912;50.836;12.958;2023-04-08T01:55:21;98039.91;;;7.78;82.75
9746;BME280;4912;50.836;12.958;2023-04-08T01:57:54;98043.13;;;7.77;82.48
9746;BME280;4912;50.836;12.958;2023-04-08T02:00:27;98045.53;;;7.75;82.83
9746;BME280;4912;50.836;12.958;2023-04-08T02:02:58;98039.69;;;7.73;84.43
9746;BME280;4912;50.836;12.958;2023-04-08T02:05:29;98041.88;;;7.78;84.60
9746;BME280;4912;50.836;12.958;2023-04-08T02:08:01;98037.03;;;7.82;84.14
9746;BME280;4912;50.836;12.958;2023-04-08T02:10:31;98044.19;;;7.79;84.05
9746;BME280;4912;50.836;12.958;2023-04-08T02:13:06;98038.81;;;7.76;84.76
9746;BME280;4912;50.836;12.958;2023-04-08T02:15:37;98038.13;;;7.72;85.17
9746;BME280;4912;50.836;12.958;2023-04-08T02:18:14;98036.28;;;7.69;85.22
9746;BME280;4912;50.836;12.958;2023-04-08T02:20:46;98037.63;;;7.64;85.09
9746;BME280;4912;50.836;12.958;2023-04-08T02:23:21;98038.19;;;7.59;85.50
9746;BME280;4912;50.836;12.958;2023-04-08T02:25:54;98039.25;;;7.62;85.93
9746;BME280;4912;50.836;12.958;2023-04-08T02:28:28;98040.81;;;7.63;86.08
9746;BME280;4912;50.836;12.958;2023-04-08T02:30:59;98042.44;;;7.60;86.71
9746;BME280;4912;50.836;12.958;2023-04-08T02:33:31;98037.28;;;7.62;86.62
9746;BME280;4912;50.836;12.958;2023-04-08T02:36:03;98034.66;;;7.59;87.19
9746;BME280;4912;50.836;12.958;2023-04-08T02:38:34;98035.09;;;7.57;87.36
9746;BME280;4912;50.836;12.958;2023-04-08T02:41:05;98032.34;;;7.57;87.42
9746;BME280;4912;50.836;12.958;2023-04-08T02:43:38;98031.44;;;7.60;88.16
9746;BME280;4912;50.836;12.958;2023-04-08T02:46:08;98041.91;;;7.65;88.27
9746;BME280;4912;50.836;12.958;2023-04-08T02:48:40;98039.03;;;7.69;87.54
9746;BME280;4912;50.836;12.958;2023-04-08T02:51:10;98041.66;;;7.72;87.74
9746;BME280;4912;50.836;12.958;2023-04-08T02:53:40;98050.59;;;7.76;87.60
9746;BME280;4912;50.836;12.958;2023-04-08T02:56:10;98052.47;;;7.79;88.28
9746;BME280;4912;50.836;12.958;2023-04-08T02:58:43;98047.28;;;7.81;88.73
9746;BME280;4912;50.836;12.958;2023-04-08T03:01:14;98048.38;;;7.84;88.42
9746;BME280;4912;50.836;12.958;2023-04-08T03:03:44;98049.47;;;7.87;88.45
9746;BME280;4912;50.836;12.958;2023-04-08T03:06:14;98049.34;;;7.90;88.61
9746;BME280;4912;50.836;12.958;2023-04-08T03:08:45;98041.09;;;7.90;88.75
9746;BME280;4912;50.836;12.958;2023-04-08T03:11:15;98051.03;;;7.88;88.75
9746;BME280;4912;50.836;12.958;2023-04-08T03:13:48;98057.94;;;7.92;88.98
9746;BME280;4912;50.836;12.958;2023-04-08T03:16:18;98052.00;;;7.94;89.13
9746;BME280;4912;50.836;12.958;2023-04-08T03:18:49;98040.66;;;7.92;89.01
9746;BME280;4912;50.836;12.958;2023-04-08T03:21:19;98048.28;;;7.88;88.93
9746;BME280;4912;50.836;12.958;2023-04-08T03:23:50;98047.50;;;7.87;90.20
9746;BME280;4912;50.836;12.958;2023-04-08T03:26:20;98056.84;;;7.90;90.54
9746;BME280;4912;50.836;12.958;2023-04-08T03:28:55;98058.72;;;7.93;90.65
9746;BME280;4912;50.836;12.958;2023-04-08T03:31:25;98061.03;;;7.94;90.00
9746;BME280;4912;50.836;12.958;2023-04-08T03:33:56;98063.47;;;7.92;90.22
9746;BME280;4912;50.836;12.958;2023-04-08T03:36:26;98059.38;;;7.97;90.41
9746;BME280;4912;50.836;12.958;2023-04-08T03:38:57;98056.50;;;8.00;89.67
9746;BME280;4912;50.836;12.958;2023-04-08T03:41:27;98059.91;;;8.04;88.83
9746;BME280;4912;50.836;12.958;2023-04-08T03:44:00;98060.91;;;7.98;88.97
9746;BME280;4912;50.836;12.958;2023-04-08T03:46:30;98066.75;;;8.00;89.37
9746;BME280;4912;50.836;12.958;2023-04-08T03:49:00;98068.84;;;7.96;90.68
9746;BME280;4912;50.836;12.958;2023-04-08T03:51:30;98072.72;;;7.98;90.30
9746;BME280;4912;50.836;12.958;2023-04-08T03:54:00;98070.59;;;8.02;89.85
9746;BME280;4912;50.836;12.958;2023-04-08T03:56:31;98077.22;;;8.05;89.57
9746;BME280;4912;50.836;12.958;2023-04-08T03:59:04;98076.31;;;8.08;89.98
9746;BME280;4912;50.836;12.958;2023-04-08T04:01:34;98078.19;;;8.11;90.15
9746;BME280;4912;50.836;12.958;2023-04-08T04:04:07;98075.00;;;8.12;89.87
9746;BME280;4912;50.836;12.958;2023-04-08T04:06:37;98072.88;;;8.16;89.47
9746;BME280;4912;50.836;12.958;2023-04-08T04:09:08;98077.75;;;8.12;87.80
9746;BME280;4912;50.836;12.958;2023-04-08T04:11:38;98075.03;;;8.00;87.97
9746;BME280;4912;50.836;12.958;2023-04-08T04:14:11;98077.84;;;8.09;88.31
9746;BME280;4912;50.836;12.958;2023-04-08T04:16:41;98071.69;;;8.05;88.12
9746;BME280;4912;50.836;12.958;2023-04-08T04:19:11;98071.28;;;8.06;87.76
9746;BME280;4912;50.836;12.958;2023-04-08T04:21:43;98070.81;;;7.95;88.02
9746;BME280;4912;50.836;12.958;2023-04-08T04:24:13;98061.81;;;7.95;88.63
9746;BME280;4912;50.836;12.958;2023-04-08T04:26:43;98072.50;;;7.93;89.04
9746;BME280;4912;50.836;12.958;2023-04-08T04:29:16;98071.28;;;7.94;88.52
9746;BME280;4912;50.836;12.958;2023-04-08T04:31:46;98081.63;;;7.90;89.70
9746;BME280;4912;50.836;12.958;2023-04-08T04:34:16;98078.56;;;7.88;90.44
9746;BME280;4912;50.836;12.958;2023-04-08T04:36:47;98086.50;;;7.86;90.92
9746;BME280;4912;50.836;12.958;2023-04-08T04:39:17;98088.38;;;7.89;91.46
9746;BME280;4912;50.836;12.958;2023-04-08T04:41:47;98091.44;;;7.91;91.07
9746;BME280;4912;50.836;12.958;2023-04-08T04:44:20;98086.41;;;7.89;91.24
9746;BME280;4912;50.836;12.958;2023-04-08T04:46:50;98094.66;;;7.89;91.23
9746;BME280;4912;50.836;12.958;2023-04-08T04:49:20;98091.91;;;7.89;91.58
9746;BME280;4912;50.836;12.958;2023-04-08T04:51:50;98090.81;;;7.87;91.40
9746;BME280;4912;50.836;12.958;2023-04-08T04:54:20;98093.78;;;7.79;91.77
9746;BME280;4912;50.836;12.958;2023-04-08T04:56:51;98094.44;;;7.83;92.23
9746;BME280;4912;50.836;12.958;2023-04-08T04:59:24;98093.00;;;7.79;91.85
9746;BME280;4912;50.836;12.958;2023-04-08T05:01:54;98102.03;;;7.79;92.02
9746;BME280;4912;50.836;12.958;2023-04-08T05:04:25;98091.59;;;7.74;92.36
9746;BME280;4912;50.836;12.958;2023-04-08T05:06:57;98091.25;;;7.72;92.46
9746;BME280;4912;50.836;12.958;2023-04-08T05:09:28;98104.91;;;7.76;92.40
9746;BME280;4912;50.836;12.958;2023-04-08T05:11:58;98108.44;;;7.76;93.14
9746;BME280;4912;50.836;12.958;2023-04-08T05:14:30;98101.72;;;7.77;92.27
9746;BME280;4912;50.836;12.958;2023-04-08T05:17:01;98112.63;;;7.68;92.19
9746;BME280;4912;50.836;12.958;2023-04-08T05:19:31;98107.00;;;7.72;92.93
9746;BME280;4912;50.836;12.958;2023-04-08T05:22:01;98105.34;;;7.74;93.35
9746;BME280;4912;50.836;12.958;2023-04-08T05:24:31;98105.78;;;7.73;93.78
9746;BME280;4912;50.836;12.958;2023-04-08T05:27:02;98109.53;;;7.79;93.45
9746;BME280;4912;50.836;12.958;2023-04-08T05:29:35;98111.19;;;7.76;92.70
9746;BME280;4912;50.836;12.958;2023-04-08T05:32:05;98118.25;;;7.77;92.63
9746;BME280;4912;50.836;12.958;2023-04-08T05:34:35;98121.88;;;7.74;92.57
9746;BME280;4912;50.836;12.958;2023-04-08T05:37:06;98119.25;;;7.71;92.78
9746;BME280;4912;50.836;12.958;2023-04-08T05:39:36;98123.75;;;7.77;92.68
9746;BME280;4912;50.836;12.958;2023-04-08T05:42:08;98126.19;;;7.75;92.68
9746;BME280;4912;50.836;12.958;2023-04-08T05:44:42;98126.72;;;7.83;94.07
9746;BME280;4912;50.836;12.958;2023-04-08T05:47:12;98130.34;;;7.93;95.47
9746;BME280;4912;50.836;12.958;2023-04-08T05:49:42;98130.13;;;8.00;94.40
9746;BME280;4912;50.836;12.958;2023-04-08T05:52:13;98128.03;;;8.04;93.28
9746;BME280;4912;50.836;12.958;2023-04-08T05:54:43;98126.47;;;8.03;93.15
9746;BME280;4912;50.836;12.958;2023-04-08T05:57:13;98134.19;;;8.08;93.00
9746;BME280;4912;50.836;12.958;2023-04-08T05:59:46;98134.88;;;8.12;92.66
9746;BME280;4912;50.836;12.958;2023-04-08T06:02:16;98139.81;;;8.17;92.18
9746;BME280;4912;50.836;12.958;2023-04-08T06:04:46;98142.78;;;8.22;92.12
9746;BME280;4912;50.836;12.958;2023-04-08T06:07:17;98142.34;;;8.24;91.31
9746;BME280;4912;50.836;12.958;2023-04-08T06:09:47;98141.78;;;8.29;90.88
9746;BME280;4912;50.836;12.958;2023-04-08T06:12:17;98147.84;;;8.24;91.07
9746;BME280;4912;50.836;12.958;2023-04-08T06:14:50;98147.38;;;8.26;91.06
9746;BME280;4912;50.836;12.958;2023-04-08T06:17:22;98155.91;;;8.18;91.25
9746;BME280;4912;50.836;12.958;2023-04-08T06:19:53;98160.22;;;8.07;91.92
9746;BME280;4912;50.836;12.958;2023-04-08T06:22:23;98163.94;;;8.13;92.24
9746;BME280;4912;50.836;12.958;2023-04-08T06:24:53;98167.94;;;8.12;92.25
9746;BME280;4912;50.836;12.958;2023-04-08T06:27:23;98164.19;;;8.18;92.27
9746;BME280;4912;50.836;12.958;2023-04-08T06:29:56;98158.09;;;8.23;92.24
9746;BME280;4912;50.836;12.958;2023-04-08T06:32:26;98162.50;;;8.21;92.04
9746;BME280;4912;50.836;12.958;2023-04-08T06:34:56;98157.63;;;8.25;92.10
9746;BME280;4912;50.836;12.958;2023-04-08T06:37:27;98166.16;;;8.31;91.95
9746;BME280;4912;50.836;12.958;2023-04-08T06:39:57;98166.81;;;8.35;92.19
9746;BME280;4912;50.836;12.958;2023-04-08T06:42:27;98168.38;;;8.36;91.51
9746;BME280;4912;50.836;12.958;2023-04-08T06:45:10;98173.41;;;8.37;91.87
9746;BME280;4912;50.836;12.958;2023-04-08T06:47:40;98173.75;;;8.39;92.09
9746;BME280;4912;50.836;12.958;2023-04-08T06:50:10;98181.59;;;8.41;92.03
9746;BME280;4912;50.836;12.958;2023-04-08T06:52:40;98181.78;;;8.46;91.84
9746;BME280;4912;50.836;12.958;2023-04-08T06:55:10;98181.88;;;8.55;91.66
9746;BME280;4912;50.836;12.958;2023-04-08T06:57:41;98179.47;;;8.57;91.31
9746;BME280;4912;50.836;12.958;2023-04-08T07:00:14;98181.66;;;8.62;90.89
9746;BME280;4912;50.836;12.958;2023-04-08T07:02:44;98179.22;;;8.65;91.05
9746;BME280;4912;50.836;12.958;2023-04-08T07:05:14;98172.94;;;8.64;90.69
9746;BME280;4912;50.836;12.958;2023-04-08T07:07:45;98173.69;;;8.65;89.94
9746;BME280;4912;50.836;12.958;2023-04-08T07:10:15;98184.28;;;8.66;90.30
9746;BME280;4912;50.836;12.958;2023-04-08T07:12:45;98191.22;;;8.71;90.34
9746;BME280;4912;50.836;12.958;2023-04-08T07:15:18;98183.03;;;8.80;90.88
9746;BME280;4912;50.836;12.958;2023-04-08T07:17:48;98189.25;;;8.71;89.91
9746;BME280;4912;50.836;12.958;2023-04-08T07:20:19;98192.53;;;8.66;90.09
9746;BME280;4912;50.836;12.958;2023-04-08T07:22:49;98193.66;;;8.69;90.09
9746;BME280;4912;50.836;12.958;2023-04-08T07:25:19;98191.75;;;8.78;90.53
9746;BME280;4912;50.836;12.958;2023-04-08T07:27:49;98195.47;;;8.84;90.82
9746;BME280;4912;50.836;12.958;2023-04-08T07:30:22;98190.72;;;8.85;90.58
9746;BME280;4912;50.836;12.958;2023-04-08T07:32:52;98193.19;;;8.83;89.87
9746;BME280;4912;50.836;12.958;2023-04-08T07:35:26;98194.63;;;8.75;90.35
9746;BME280;4912;50.836;12.958;2023-04-08T07:37:57;98208.41;;;8.75;91.05
9746;BME280;4912;50.836;12.958;2023-04-08T07:40:27;98200.34;;;8.80;90.94
9746;BME280;4912;50.836;12.958;2023-04-08T07:42:58;98211.59;;;8.86;91.07
9746;BME280;4912;50.836;12.958;2023-04-08T07:45:31;98216.22;;;8.89;91.09
9746;BME280;4912;50.836;12.958;2023-04-08T07:48:01;98215.00;;;8.90;91.10
9746;BME280;4912;50.836;12.958;2023-04-08T07:50:31;98215.97;;;8.96;90.81
9746;BME280;4912;50.836;12.958;2023-04-08T07:53:21;98231.19;;;9.00;91.47
9746;BME280;4912;50.836;12.958;2023-04-08T07:55:52;98228.63;;;9.06;90.44
9746;BME280;4912;50.836;12.958;2023-04-08T07:58:22;98223.13;;;9.06;90.27
9746;BME280;4912;50.836;12.958;2023-04-08T08:00:55;98221.44;;;9.09;90.54
9746;BME280;4912;50.836;12.958;2023-04-08T08:03:26;98232.03;;;9.10;90.01
9746;BME280;4912;50.836;12.958;2023-04-08T08:05:59;98225.16;;;9.15;90.22
9746;BME280;4912;50.836;12.958;2023-04-08T08:08:29;98221.53;;;9.18;90.28
9746;BME280;4912;50.836;12.958;2023-04-08T08:11:02;98230.00;;;9.23;90.27
9746;BME280;4912;50.836;12.958;2023-04-08T08:13:32;98232.81;;;9.32;89.81
9746;BME280;4912;50.836;12.958;2023-04-08T08:16:05;98227.63;;;9.34;89.30
9746;BME280;4912;50.836;12.958;2023-04-08T08:18:38;98237.56;;;9.32;89.15
9746;BME280;4912;50.836;12.958;2023-04-08T08:21:08;98248.22;;;9.21;89.42
9746;BME280;4912;50.836;12.958;2023-04-08T08:23:38;98239.16;;;9.20;89.63
9746;BME280;4912;50.836;12.958;2023-04-08T08:26:09;98246.31;;;9.30;89.83
9746;BME280;4912;50.836;12.958;2023-04-08T08:28:39;98241.97;;;9.42;89.62
9746;BME280;4912;50.836;12.958;2023-04-08T08:31:12;98252.28;;;9.51;89.28
9746;BME280;4912;50.836;12.958;2023-04-08T08:33:42;98250.88;;;9.46;89.02
9746;BME280;4912;50.836;12.958;2023-04-08T08:36:12;98248.22;;;9.42;88.82
9746;BME280;4912;50.836;12.958;2023-04-08T08:38:43;98254.53;;;9.43;89.51
9746;BME280;4912;50.836;12.958;2023-04-08T08:41:14;98256.53;;;9.42;89.40
9746;BME280;4912;50.836;12.958;2023-04-08T08:43:44;98254.72;;;9.49;89.52
9746;BME280;4912;50.836;12.958;2023-04-08T08:46:17;98252.91;;;9.55;88.32
9746;BME280;4912;50.836;12.958;2023-04-08T08:48:47;98262.50;;;9.63;88.24
9746;BME280;4912;50.836;12.958;2023-04-08T08:51:18;98264.38;;;9.66;88.36
9746;BME280;4912;50.836;12.958;2023-04-08T08:53:48;98268.22;;;9.68;88.44
9746;BME280;4912;50.836;12.958;2023-04-08T08:56:18;98268.66;;;9.67;88.45
9746;BME280;4912;50.836;12.958;2023-04-08T08:58:48;98271.44;;;9.67;87.75
9746;BME280;4912;50.836;12.958;2023-04-08T09:01:37;98271.91;;;9.65;87.70
9746;BME280;4912;50.836;12.958;2023-04-08T09:04:09;98274.31;;;9.63;87.41
9746;BME280;4912;50.836;12.958;2023-04-08T09:06:41;98278.63;;;9.64;87.19
9746;BME280;4912;50.836;12.958;2023-04-08T09:09:12;98271.13;;;9.65;89.28
9746;BME280;4912;50.836;12.958;2023-04-08T09:11:43;98279.28;;;9.68;88.50
9746;BME280;4912;50.836;12.958;2023-04-08T09:14:18;98282.03;;;9.68;88.40
9746;BME280;4912;50.836;12.958;2023-04-08T09:16:51;98285.91;;;9.71;88.27
9746;BME280;4912;50.836;12.958;2023-04-08T09:19:22;98286.88;;;9.77;87.72
9746;BME280;4912;50.836;12.958;2023-04-08T09:22:03;98287.34;;;9.84;87.54
9746;BME280;4912;50.836;12.958;2023-04-08T09:24:34;98293.47;;;10.01;86.85
9746;BME280;4912;50.836;12.958;2023-04-08T09:27:08;98299.09;;;10.19;86.41
9746;BME280;4912;50.836;12.958;2023-04-08T09:29:38;98297.28;;;10.25;85.25
9746;BME280;4912;50.836;12.958;2023-04-08T09:32:11;98296.91;;;10.36;85.03
9746;BME280;4912;50.836;12.958;2023-04-08T09:34:42;98301.75;;;10.63;84.94
9746;BME280;4912;50.836;12.958;2023-04-08T09:37:12;98302.75;;;10.96;83.01
9746;BME280;4912;50.836;12.958;2023-04-08T09:39:42;98305.44;;;11.18;81.68
9746;BME280;4912;50.836;12.958;2023-04-08T09:42:12;98298.97;;;11.21;80.92
9746;BME280;4912;50.836;12.958;2023-04-08T09:44:42;98304.06;;;11.23;80.37
9746;BME280;4912;50.836;12.958;2023-04-08T09:47:18;98319.91;;;11.31;78.20
9746;BME280;4912;50.836;12.958;2023-04-08T09:49:50;98308.69;;;11.53;77.91
9746;BME280;4912;50.836;12.958;2023-04-08T09:52:29;98309.59;;;11.68;76.51
9746;BME280;4912;50.836;12.958;2023-04-08T09:55:03;98307.91;;;11.80;76.19
9746;BME280;4912;50.836;12.958;2023-04-08T09:57:35;98311.41;;;12.08;75.60
9746;BME280;4912;50.836;12.958;2023-04-08T10:00:11;98312.94;;;12.18;74.00
9746;BME280;4912;50.836;12.958;2023-04-08T10:02:48;98317.72;;;12.08;73.82
9746;BME280;4912;50.836;12.958;2023-04-08T10:05:23;98312.41;;;11.77;72.21
9746;BME280;4912;50.836;12.958;2023-04-08T10:07:54;98315.47;;;11.79;73.40
9746;BME280;4912;50.836;12.958;2023-04-08T10:10:25;98316.41;;;11.76;74.59
9746;BME280;4912;50.836;12.958;2023-04-08T10:12:55;98318.84;;;11.74;74.88
9746;BME280;4912;50.836;12.958;2023-04-08T10:15:26;98310.38;;;11.69;74.47
9746;BME280;4912;50.836;12.958;2023-04-08T10:21:00;98318.38;;;11.85;74.41
9746;BME280;4912;50.836;12.958;2023-04-08T10:26:38;98327.63;;;11.91;75.00
9746;BME280;4912;50.836;12.958;2023-04-08T10:32:26;98324.72;;;11.76;71.94
9746;BME280;4912;50.836;12.958;2023-04-08T10:34:57;98327.00;;;11.60;72.74
9746;BME280;4912;50.836;12.958;2023-04-08T10:37:31;98333.59;;;11.44;72.91
9746;BME280;4912;50.836;12.958;2023-04-08T10:40:03;98328.22;;;11.40;72.53
9746;BME280;4912;50.836;12.958;2023-04-08T10:42:33;98339.16;;;11.35;72.80
9746;BME280;4912;50.836;12.958;2023-04-08T10:45:04;98331.31;;;11.42;72.27
9746;BME280;4912;50.836;12.958;2023-04-08T10:47:34;98335.50;;;11.74;71.30
9746;BME280;4912;50.836;12.958;2023-04-08T10:50:11;98327.56;;;12.27;69.36
9746;BME280;4912;50.836;12.958;2023-04-08T10:52:48;98325.34;;;13.16;65.46
9746;BME280;4912;50.836;12.958;2023-04-08T10:55:21;98324.00;;;13.49;62.94
9746;BME280;4912;50.836;12.958;2023-04-08T10:57:51;98320.56;;;13.93;60.56
9746;BME280;4912;50.836;12.958;2023-04-08T11:00:31;98318.28;;;14.65;58.46
9746;BME280;4912;50.836;12.958;2023-04-08T11:03:02;98320.00;;;14.97;57.85
9746;BME280;4912;50.836;12.958;2023-04-08T11:05:33;98321.19;;;14.91;57.12
9746;BME280;4912;50.836;12.958;2023-04-08T11:08:08;98314.72;;;14.50;56.41
9746;BME280;4912;50.836;12.958;2023-04-08T11:10:38;98326.06;;;14.17;59.00
9746;BME280;4912;50.836;12.958;2023-04-08T11:13:08;98328.78;;;13.73;59.27
9746;BME280;4912;50.836;12.958;2023-04-08T11:15:38;98324.44;;;13.57;58.43
9746;BME280;4912;50.836;12.958;2023-04-08T11:18:09;98335.63;;;13.48;58.32
9746;BME280;4912;50.836;12.958;2023-04-08T11:20:42;98325.56;;;13.50;57.19
9746;BME280;4912;50.836;12.958;2023-04-08T11:23:15;98333.44;;;13.52;56.84
9746;BME280;4912;50.836;12.958;2023-04-08T11:25:46;98343.06;;;13.66;58.05
9746;BME280;4912;50.836;12.958;2023-04-08T11:28:16;98340.31;;;13.42;57.03
9746;BME280;4912;50.836;12.958;2023-04-08T11:30:47;98339.47;;;13.27;57.89
9746;BME280;4912;50.836;12.958;2023-04-08T11:33:17;98342.00;;;13.16;59.45
9746;BME280;4912;50.836;12.958;2023-04-08T11:35:49;98355.31;;;13.02;59.37
9746;BME280;4912;50.836;12.958;2023-04-08T11:38:23;98351.50;;;13.00;60.87
9746;BME280;4912;50.836;12.958;2023-04-08T11:40:54;98353.41;;;12.85;60.94
9746;BME280;4912;50.836;12.958;2023-04-08T11:43:25;98356.56;;;12.68;60.94
9746;BME280;4912;50.836;12.958;2023-04-08T11:45:55;98360.75;;;12.64;61.26
9746;BME280;4912;50.836;12.958;2023-04-08T11:48:26;98354.13;;;12.61;61.84
9746;BME280;4912;50.836;12.958;2023-04-08T11:51:02;98352.69;;;12.75;62.45
9746;BME280;4912;50.836;12.958;2023-04-08T11:53:37;98347.91;;;12.76;61.38
9746;BME280;4912;50.836;12.958;2023-04-08T11:56:14;98347.84;;;12.85;61.42
9746;BME280;4912;50.836;12.958;2023-04-08T11:58:46;98359.13;;;12.81;62.53
9746;BME280;4912;50.836;12.958;2023-04-08T12:01:16;98357.16;;;12.72;61.14
9746;BME280;4912;50.836;12.958;2023-04-08T12:03:57;98351.97;;;12.56;61.83
9746;BME280;4912;50.836;12.958;2023-04-08T12:06:28;98357.41;;;12.51;63.06
9746;BME280;4912;50.836;12.958;2023-04-08T12:09:01;98351.13;;;12.41;62.35
9746;BME280;4912;50.836;12.958;2023-04-08T12:11:31;98355.91;;;12.31;62.42
9746;BME280;4912;50.836;12.958;2023-04-08T12:14:01;98368.88;;;12.16;62.18
9746;BME280;4912;50.836;12.958;2023-04-08T12:16:31;98357.81;;;11.98;62.95
9746;BME280;4912;50.836;12.958;2023-04-08T12:19:02;98367.06;;;11.77;63.38
9746;BME280;4912;50.836;12.958;2023-04-08T12:21:32;98361.66;;;11.73;63.93
9746;BME280;4912;50.836;12.958;2023-04-08T12:24:05;98371.66;;;11.71;65.12
9746;BME280;4912;50.836;12.958;2023-04-08T12:26:35;98361.97;;;11.84;64.78
9746;BME280;4912;50.836;12.958;2023-04-08T12:29:05;98370.91;;;11.98;65.25
9746;BME280;4912;50.836;12.958;2023-04-08T12:31:37;98368.75;;;12.11;65.57
9746;BME280;4912;50.836;12.958;2023-04-08T12:34:07;98372.56;;;12.22;65.07
9746;BME280;4912;50.836;12.958;2023-04-08T12:36:38;98370.69;;;12.38;64.35
9746;BME280;4912;50.836;12.958;2023-04-08T12:39:11;98370.38;;;12.45;64.56
9746;BME280;4912;50.836;12.958;2023-04-08T12:41:41;98371.72;;;12.49;63.37
9746;BME280;4912;50.836;12.958;2023-04-08T12:44:11;98372.22;;;12.48;63.84
9746;BME280;4912;50.836;12.958;2023-04-08T12:46:41;98378.53;;;12.48;63.95
9746;BME280;4912;50.836;12.958;2023-04-08T12:49:12;98369.00;;;12.40;63.21
9746;BME280;4912;50.836;12.958;2023-04-08T12:51:42;98386.09;;;12.39;63.14
9746;BME280;4912;50.836;12.958;2023-04-08T12:54:15;98373.66;;;12.16;63.35
9746;BME280;4912;50.836;12.958;2023-04-08T12:56:45;98382.94;;;12.13;64.18
9746;BME280;4912;50.836;12.958;2023-04-08T12:59:15;98377.81;;;12.02;62.88
9746;BME280;4912;50.836;12.958;2023-04-08T13:01:45;98382.00;;;12.07;63.02
9746;BME280;4912;50.836;12.958;2023-04-08T13:04:15;98375.84;;;12.03;62.15
9746;BME280;4912;50.836;12.958;2023-04-08T13:06:46;98375.22;;;12.08;61.79
9746;BME280;4912;50.836;12.958;2023-04-08T13:09:20;98363.94;;;12.20;62.25
9746;BME280;4912;50.836;12.958;2023-04-08T13:11:50;98366.66;;;12.48;61.84
9746;BME280;4912;50.836;12.958;2023-04-08T13:14:20;98368.94;;;12.58;60.88
9746;BME280;4912;50.836;12.958;2023-04-08T13:16:50;98373.53;;;12.61;61.07
9746;BME280;4912;50.836;12.958;2023-04-08T13:19:20;98367.22;;;12.61;61.11
9746;BME280;4912;50.836;12.958;2023-04-08T13:21:51;98373.84;;;12.63;61.61
9746;BME280;4912;50.836;12.958;2023-04-08T13:24:24;98373.41;;;12.56;60.49
9746;BME280;4912;50.836;12.958;2023-04-08T13:26:54;98373.94;;;12.36;60.29
9746;BME280;4912;50.836;12.958;2023-04-08T13:29:25;98376.13;;;12.23;61.06
9746;BME280;4912;50.836;12.958;2023-04-08T13:31:55;98380.44;;;12.15;61.62
9746;BME280;4912;50.836;12.958;2023-04-08T13:34:25;98377.53;;;12.09;61.44
9746;BME280;4912;50.836;12.958;2023-04-08T13:36:55;98377.66;;;12.15;62.12
9746;BME280;4912;50.836;12.958;2023-04-08T13:39:28;98378.16;;;12.13;62.43
9746;BME280;4912;50.836;12.958;2023-04-08T13:41:58;98381.06;;;12.10;61.97
9746;BME280;4912;50.836;12.958;2023-04-08T13:44:28;98383.53;;;12.08;62.93
9746;BME280;4912;50.836;12.958;2023-04-08T13:46:58;98377.38;;;12.04;63.00
9746;BME280;4912;50.836;12.958;2023-04-08T13:49:29;98379.22;;;11.98;62.35